sensor_id;sensor_type;location;lat;lon;timestamp;temperature;humidity
64843;DHT22;51310;52.198;5.422;2022-08-04T00:02:26;22.00;83.90
64843;DHT22;51310;52.198;5.422;2022-08-04T00:05:04;22.00;84.90
64843;DHT22;51310;52.198;5.422;2022-08-04T00:10:49;21.60;89.40
64843;DHT22;51310;52.198;5.422;2022-08-04T00:13:24;21.50;89.40
64843;DHT22;51310;52.198;5.422;2022-08-04T00:15:57;21.70;89.30
64843;DHT22;51310;52.198;5.422;2022-08-04T00:18:34;21.70;89.30
64843;DHT22;51310;52.198;5.422;2022-08-04T00:21:15;21.70;90.20
64843;DHT22;51310;52.198;5.422;2022-08-04T00:23:48;21.70;90.50
64843;DHT22;51310;52.198;5.422;2022-08-04T00:26:18;21.70;90.90
64843;DHT22;51310;52.198;5.422;2022-08-04T00:28:46;21.70;90.60
64843;DHT22;51310;52.198;5.422;2022-08-04T00:31:14;21.60;91.00
64843;DHT22;51310;52.198;5.422;2022-08-04T00:33:47;21.70;91.10
64843;DHT22;51310;52.198;5.422;2022-08-04T00:36:16;21.60;91.10
64843;DHT22;51310;52.198;5.422;2022-08-04T00:38:43;21.50;91.90
64843;DHT22;51310;52.198;5.422;2022-08-04T00:41:24;21.60;91.80
64843;DHT22;51310;52.198;5.422;2022-08-04T00:44:33;21.50;92.30
64843;DHT22;51310;52.198;5.422;2022-08-04T00:47:40;21.50;92.90
64843;DHT22;51310;52.198;5.422;2022-08-04T00:50:43;21.50;93.20
64843;DHT22;51310;52.198;5.422;2022-08-04T00:56:35;21.40;93.90
64843;DHT22;51310;52.198;5.422;2022-08-04T01:15:13;21.50;93.20
64843;DHT22;51310;52.198;5.422;2022-08-04T01:18:04;21.20;94.30
64843;DHT22;51310;52.198;5.422;2022-08-04T01:24:28;21.00;96.80
64843;DHT22;51310;52.198;5.422;2022-08-04T01:30:12;20.80;98.50
64843;DHT22;51310;52.198;5.422;2022-08-04T01:32:48;20.80;99.40
64843;DHT22;51310;52.198;5.422;2022-08-04T01:35:29;20.70;99.50
64843;DHT22;51310;52.198;5.422;2022-08-04T01:38:06;20.70;99.90
64843;DHT22;51310;52.198;5.422;2022-08-04T01:40:52;20.70;99.90
64843;DHT22;51310;52.198;5.422;2022-08-04T01:43:23;20.70;99.90
64843;DHT22;51310;52.198;5.422;2022-08-04T01:45:50;20.70;99.90
64843;DHT22;51310;52.198;5.422;2022-08-04T01:48:24;20.90;99.90
64843;DHT22;51310;52.198;5.422;2022-08-04T01:50:54;20.90;99.90
64843;DHT22;51310;52.198;5.422;2022-08-04T01:53:50;20.80;99.80
64843;DHT22;51310;52.198;5.422;2022-08-04T01:56:16;21.00;99.90
64843;DHT22;51310;52.198;5.422;2022-08-04T01:58:43;21.00;99.80
64843;DHT22;51310;52.198;5.422;2022-08-04T02:01:11;21.00;99.90
64843;DHT22;51310;52.198;5.422;2022-08-04T02:03:43;20.90;99.90
64843;DHT22;51310;52.198;5.422;2022-08-04T02:09:32;21.10;99.20
64843;DHT22;51310;52.198;5.422;2022-08-04T02:12:46;21.00;99.50
64843;DHT22;51310;52.198;5.422;2022-08-04T02:15:38;20.70;99.90
64843;DHT22;51310;52.198;5.422;2022-08-04T02:21:30;20.50;99.90
64843;DHT22;51310;52.198;5.422;2022-08-04T02:24:02;20.70;99.90
64843;DHT22;51310;52.198;5.422;2022-08-04T02:26:34;20.70;99.90
64843;DHT22;51310;52.198;5.422;2022-08-04T02:29:18;20.90;98.80
64843;DHT22;51310;52.198;5.422;2022-08-04T02:31:56;20.90;99.40
64843;DHT22;51310;52.198;5.422;2022-08-04T02:34:33;20.90;99.90
64843;DHT22;51310;52.198;5.422;2022-08-04T02:37:09;20.90;99.70
64843;DHT22;51310;52.198;5.422;2022-08-04T02:39:36;20.70;99.90
64843;DHT22;51310;52.198;5.422;2022-08-04T02:42:03;20.40;99.90
64843;DHT22;51310;52.198;5.422;2022-08-04T02:44:31;20.20;99.90
64843;DHT22;51310;52.198;5.422;2022-08-04T02:46:59;20.20;99.90
64843;DHT22;51310;52.198;5.422;2022-08-04T02:49:28;20.70;99.90
64843;DHT22;51310;52.198;5.422;2022-08-04T02:52:02;20.20;99.90
64843;DHT22;51310;52.198;5.422;2022-08-04T02:54:34;20.20;99.90
64843;DHT22;51310;52.198;5.422;2022-08-04T02:57:08;20.30;99.90
64843;DHT22;51310;52.198;5.422;2022-08-04T03:00:04;20.30;99.90
64843;DHT22;51310;52.198;5.422;2022-08-04T03:03:01;21.40;99.90
64843;DHT22;51310;52.198;5.422;2022-08-04T03:06:03;20.30;99.90
64843;DHT22;51310;52.198;5.422;2022-08-04T03:08:56;20.40;99.90
64843;DHT22;51310;52.198;5.422;2022-08-04T03:17:49;20.20;99.90
64843;DHT22;51310;52.198;5.422;2022-08-04T03:23:49;20.30;99.90
64843;DHT22;51310;52.198;5.422;2022-08-04T03:30:05;20.30;99.90
64843;DHT22;51310;52.198;5.422;2022-08-04T03:32:42;20.20;99.90
64843;DHT22;51310;52.198;5.422;2022-08-04T03:36:17;20.20;99.90
64843;DHT22;51310;52.198;5.422;2022-08-04T04:10:41;20.00;99.90
64843;DHT22;51310;52.198;5.422;2022-08-04T04:50:57;20.70;99.90
64843;DHT22;51310;52.198;5.422;2022-08-04T04:59:56;21.00;99.90
64843;DHT22;51310;52.198;5.422;2022-08-04T05:03:04;21.10;99.90
64843;DHT22;51310;52.198;5.422;2022-08-04T05:06:06;21.30;99.90
64843;DHT22;51310;52.198;5.422;2022-08-04T05:12:33;21.40;99.90
64843;DHT22;51310;52.198;5.422;2022-08-04T05:15:18;21.50;99.90
64843;DHT22;51310;52.198;5.422;2022-08-04T05:17:49;21.50;99.50
64843;DHT22;51310;52.198;5.422;2022-08-04T05:20:22;21.60;99.90
64843;DHT22;51310;52.198;5.422;2022-08-04T05:23:12;21.70;99.80
64843;DHT22;51310;52.198;5.422;2022-08-04T05:25:53;22.00;99.90
64843;DHT22;51310;52.198;5.422;2022-08-04T05:28:37;21.80;99.90
64843;DHT22;51310;52.198;5.422;2022-08-04T05:31:12;21.90;99.90
64843;DHT22;51310;52.198;5.422;2022-08-04T05:36:36;22.00;99.10
64843;DHT22;51310;52.198;5.422;2022-08-04T05:39:11;22.10;98.50
64843;DHT22;51310;52.198;5.422;2022-08-04T05:41:44;22.00;98.40
64843;DHT22;51310;52.198;5.422;2022-08-04T05:44:11;22.20;98.40
64843;DHT22;51310;52.198;5.422;2022-08-04T05:46:38;22.40;97.40
64843;DHT22;51310;52.198;5.422;2022-08-04T05:49:06;22.70;96.40
64843;DHT22;51310;52.198;5.422;2022-08-04T05:51:34;22.80;95.90
64843;DHT22;51310;52.198;5.422;2022-08-04T05:54:01;23.60;95.30
64843;DHT22;51310;52.198;5.422;2022-08-04T05:56:30;22.70;95.00
64843;DHT22;51310;52.198;5.422;2022-08-04T05:58:59;22.80;95.10
64843;DHT22;51310;52.198;5.422;2022-08-04T06:01:28;22.80;95.40
64843;DHT22;51310;52.198;5.422;2022-08-04T06:03:57;22.90;94.10
64843;DHT22;51310;52.198;5.422;2022-08-04T06:06:26;23.00;93.70
64843;DHT22;51310;52.198;5.422;2022-08-04T06:08:54;23.10;93.00
64843;DHT22;51310;52.198;5.422;2022-08-04T06:11:21;23.00;94.10
64843;DHT22;51310;52.198;5.422;2022-08-04T06:14:00;23.10;93.90
64843;DHT22;51310;52.198;5.422;2022-08-04T06:16:39;23.10;93.20
64843;DHT22;51310;52.198;5.422;2022-08-04T06:19:11;23.00;93.60
64843;DHT22;51310;52.198;5.422;2022-08-04T06:21:42;23.00;93.70
64843;DHT22;51310;52.198;5.422;2022-08-04T06:24:18;23.70;93.20
64843;DHT22;51310;52.198;5.422;2022-08-04T06:26:49;23.30;92.50
64843;DHT22;51310;52.198;5.422;2022-08-04T06:29:17;23.30;92.20
64843;DHT22;51310;52.198;5.422;2022-08-04T06:31:52;23.40;91.90
64843;DHT22;51310;52.198;5.422;2022-08-04T06:34:28;23.60;91.10
64843;DHT22;51310;52.198;5.422;2022-08-04T06:36:57;23.70;87.50
64843;DHT22;51310;52.198;5.422;2022-08-04T06:39:25;23.80;86.20
64843;DHT22;51310;52.198;5.422;2022-08-04T06:41:54;23.70;83.50
64843;DHT22;51310;52.198;5.422;2022-08-04T06:44:21;23.60;84.50
64843;DHT22;51310;52.198;5.422;2022-08-04T06:46:49;23.50;83.90
64843;DHT22;51310;52.198;5.422;2022-08-04T06:49:17;23.50;86.10
64843;DHT22;51310;52.198;5.422;2022-08-04T06:51:48;23.50;83.80
64843;DHT22;51310;52.198;5.422;2022-08-04T06:54:19;23.40;83.80
64843;DHT22;51310;52.198;5.422;2022-08-04T06:56:45;23.30;86.60
64843;DHT22;51310;52.198;5.422;2022-08-04T06:59:18;23.40;88.00
64843;DHT22;51310;52.198;5.422;2022-08-04T07:01:46;23.30;90.20
64843;DHT22;51310;52.198;5.422;2022-08-04T07:04:14;23.30;90.50
64843;DHT22;51310;52.198;5.422;2022-08-04T07:06:41;23.30;91.10
64843;DHT22;51310;52.198;5.422;2022-08-04T07:09:07;23.20;90.70
64843;DHT22;51310;52.198;5.422;2022-08-04T07:11:34;23.30;91.00
64843;DHT22;51310;52.198;5.422;2022-08-04T07:14:01;23.20;91.40
64843;DHT22;51310;52.198;5.422;2022-08-04T07:16:29;23.20;91.60
64843;DHT22;51310;52.198;5.422;2022-08-04T07:18:57;23.20;91.50
64843;DHT22;51310;52.198;5.422;2022-08-04T07:21:23;23.10;91.80
64843;DHT22;51310;52.198;5.422;2022-08-04T07:23:52;23.20;91.80
64843;DHT22;51310;52.198;5.422;2022-08-04T07:26:18;23.20;92.60
64843;DHT22;51310;52.198;5.422;2022-08-04T07:28:45;23.30;92.30
64843;DHT22;51310;52.198;5.422;2022-08-04T07:31:15;23.30;92.60
64843;DHT22;51310;52.198;5.422;2022-08-04T07:33:44;23.40;92.90
64843;DHT22;51310;52.198;5.422;2022-08-04T07:36:12;23.40;92.80
64843;DHT22;51310;52.198;5.422;2022-08-04T07:38:40;23.40;91.80
64843;DHT22;51310;52.198;5.422;2022-08-04T07:41:07;23.40;91.80
64843;DHT22;51310;52.198;5.422;2022-08-04T07:43:35;23.40;91.90
64843;DHT22;51310;52.198;5.422;2022-08-04T07:46:02;23.40;92.20
64843;DHT22;51310;52.198;5.422;2022-08-04T07:48:29;23.30;93.00
64843;DHT22;51310;52.198;5.422;2022-08-04T07:50:55;23.50;91.60
64843;DHT22;51310;52.198;5.422;2022-08-04T07:53:22;23.70;91.90
64843;DHT22;51310;52.198;5.422;2022-08-04T07:55:50;23.70;91.00
64843;DHT22;51310;52.198;5.422;2022-08-04T07:58:17;23.70;92.10
64843;DHT22;51310;52.198;5.422;2022-08-04T08:00:48;23.90;91.50
64843;DHT22;51310;52.198;5.422;2022-08-04T08:03:18;23.80;90.40
64843;DHT22;51310;52.198;5.422;2022-08-04T08:05:46;23.80;91.10
64843;DHT22;51310;52.198;5.422;2022-08-04T08:08:11;24.00;90.90
64843;DHT22;51310;52.198;5.422;2022-08-04T08:10:38;24.00;90.70
64843;DHT22;51310;52.198;5.422;2022-08-04T08:13:06;23.90;91.00
64843;DHT22;51310;52.198;5.422;2022-08-04T08:15:32;23.90;91.60
64843;DHT22;51310;52.198;5.422;2022-08-04T08:17:59;23.80;92.30
64843;DHT22;51310;52.198;5.422;2022-08-04T08:20:25;24.00;91.90
64843;DHT22;51310;52.198;5.422;2022-08-04T08:22:51;24.20;90.70
64843;DHT22;51310;52.198;5.422;2022-08-04T08:25:17;24.30;89.30
64843;DHT22;51310;52.198;5.422;2022-08-04T08:27:43;24.20;90.20
64843;DHT22;51310;52.198;5.422;2022-08-04T08:30:10;24.10;90.10
64843;DHT22;51310;52.198;5.422;2022-08-04T08:32:36;24.10;89.90
64843;DHT22;51310;52.198;5.422;2022-08-04T08:35:02;24.10;90.20
64843;DHT22;51310;52.198;5.422;2022-08-04T08:37:34;24.10;90.40
64843;DHT22;51310;52.198;5.422;2022-08-04T08:55:17;24.50;81.60
64843;DHT22;51310;52.198;5.422;2022-08-04T09:01:46;24.50;82.30
64843;DHT22;51310;52.198;5.422;2022-08-04T09:04:55;24.50;82.80
64843;DHT22;51310;52.198;5.422;2022-08-04T09:07:50;24.60;82.00
64843;DHT22;51310;52.198;5.422;2022-08-04T09:10:46;24.70;82.20
64843;DHT22;51310;52.198;5.422;2022-08-04T09:13:23;24.70;77.50
64843;DHT22;51310;52.198;5.422;2022-08-04T09:16:24;24.80;76.30
64843;DHT22;51310;52.198;5.422;2022-08-04T09:19:11;24.70;75.60
64843;DHT22;51310;52.198;5.422;2022-08-04T09:22:15;24.50;75.50
64843;DHT22;51310;52.198;5.422;2022-08-04T09:25:06;24.70;74.00
64843;DHT22;51310;52.198;5.422;2022-08-04T09:27:51;24.70;74.30
64843;DHT22;51310;52.198;5.422;2022-08-04T09:30:22;25.10;72.50
64843;DHT22;51310;52.198;5.422;2022-08-04T09:33:09;25.30;72.40
64843;DHT22;51310;52.198;5.422;2022-08-04T09:36:20;25.20;72.40
64843;DHT22;51310;52.198;5.422;2022-08-04T09:42:08;25.50;68.80
64843;DHT22;51310;52.198;5.422;2022-08-04T09:44:57;25.40;67.00
64843;DHT22;51310;52.198;5.422;2022-08-04T09:50:06;25.60;65.90
64843;DHT22;51310;52.198;5.422;2022-08-04T10:02:26;25.90;62.40
64843;DHT22;51310;52.198;5.422;2022-08-04T10:05:02;25.90;62.80
64843;DHT22;51310;52.198;5.422;2022-08-04T10:11:05;26.30;61.70
64843;DHT22;51310;52.198;5.422;2022-08-04T10:14:01;26.00;61.70
64843;DHT22;51310;52.198;5.422;2022-08-04T10:16:52;25.90;62.90
64843;DHT22;51310;52.198;5.422;2022-08-04T10:19:34;25.80;62.10
64843;DHT22;51310;52.198;5.422;2022-08-04T10:22:16;25.90;61.10
64843;DHT22;51310;52.198;5.422;2022-08-04T10:28:16;25.50;63.50
64843;DHT22;51310;52.198;5.422;2022-08-04T10:30:53;25.50;62.20
64843;DHT22;51310;52.198;5.422;2022-08-04T10:33:30;25.60;62.60
64843;DHT22;51310;52.198;5.422;2022-08-04T10:36:08;25.60;63.30
64843;DHT22;51310;52.198;5.422;2022-08-04T10:47:34;25.10;61.90
64843;DHT22;51310;52.198;5.422;2022-08-04T10:50:09;24.90;62.00
64843;DHT22;51310;52.198;5.422;2022-08-04T10:53:02;25.00;60.50
64843;DHT22;51310;52.198;5.422;2022-08-04T10:55:40;24.80;61.80
64843;DHT22;51310;52.198;5.422;2022-08-04T10:58:19;24.70;62.40
64843;DHT22;51310;52.198;5.422;2022-08-04T11:00:55;24.90;61.20
64843;DHT22;51310;52.198;5.422;2022-08-04T11:03:41;24.90;61.50
64843;DHT22;51310;52.198;5.422;2022-08-04T11:06:14;24.70;61.50
64843;DHT22;51310;52.198;5.422;2022-08-04T11:08:46;24.80;61.80
64843;DHT22;51310;52.198;5.422;2022-08-04T11:11:42;24.80;61.80
64843;DHT22;51310;52.198;5.422;2022-08-04T11:14:18;24.80;61.60
64843;DHT22;51310;52.198;5.422;2022-08-04T11:16:58;24.80;60.80
64843;DHT22;51310;52.198;5.422;2022-08-04T11:20:26;24.90;60.80
64843;DHT22;51310;52.198;5.422;2022-08-04T11:22:47;25.10;59.20
64843;DHT22;51310;52.198;5.422;2022-08-04T11:25:28;25.20;59.20
64843;DHT22;51310;52.198;5.422;2022-08-04T11:28:12;25.40;59.10
64843;DHT22;51310;52.198;5.422;2022-08-04T11:31:13;25.60;58.70
64843;DHT22;51310;52.198;5.422;2022-08-04T11:42:55;25.80;57.60
64843;DHT22;51310;52.198;5.422;2022-08-04T11:45:59;25.70;59.30
64843;DHT22;51310;52.198;5.422;2022-08-04T11:48:38;25.70;58.10
64843;DHT22;51310;52.198;5.422;2022-08-04T11:51:16;25.80;57.50
64843;DHT22;51310;52.198;5.422;2022-08-04T11:53:43;26.20;56.70
64843;DHT22;51310;52.198;5.422;2022-08-04T11:56:13;26.30;55.70
64843;DHT22;51310;52.198;5.422;2022-08-04T11:58:40;26.20;55.90
64843;DHT22;51310;52.198;5.422;2022-08-04T12:01:24;26.30;54.00
64843;DHT22;51310;52.198;5.422;2022-08-04T12:04:36;26.20;55.70
64843;DHT22;51310;52.198;5.422;2022-08-04T12:07:51;26.00;56.00
64843;DHT22;51310;52.198;5.422;2022-08-04T12:11:12;25.90;57.30
64843;DHT22;51310;52.198;5.422;2022-08-04T12:17:04;26.30;54.70
64843;DHT22;51310;52.198;5.422;2022-08-04T12:19:54;26.10;57.40
64843;DHT22;51310;52.198;5.422;2022-08-04T12:22:25;26.10;53.50
64843;DHT22;51310;52.198;5.422;2022-08-04T12:25:08;26.10;55.80
64843;DHT22;51310;52.198;5.422;2022-08-04T12:28:07;25.90;55.10
64843;DHT22;51310;52.198;5.422;2022-08-04T12:30:50;26.10;55.90
64843;DHT22;51310;52.198;5.422;2022-08-04T12:34:01;26.00;55.20
64843;DHT22;51310;52.198;5.422;2022-08-04T12:36:44;26.10;55.70
64843;DHT22;51310;52.198;5.422;2022-08-04T12:39:21;26.00;54.80
64843;DHT22;51310;52.198;5.422;2022-08-04T12:42:16;26.20;55.60
64843;DHT22;51310;52.198;5.422;2022-08-04T12:44:49;26.30;52.80
64843;DHT22;51310;52.198;5.422;2022-08-04T12:47:22;26.30;54.90
64843;DHT22;51310;52.198;5.422;2022-08-04T12:49:52;26.30;54.30
64843;DHT22;51310;52.198;5.422;2022-08-04T12:52:23;26.60;51.10
64843;DHT22;51310;52.198;5.422;2022-08-04T12:54:53;26.60;52.50
64843;DHT22;51310;52.198;5.422;2022-08-04T12:57:23;26.50;53.20
64843;DHT22;51310;52.198;5.422;2022-08-04T12:59:49;26.40;52.80
64843;DHT22;51310;52.198;5.422;2022-08-04T13:02:27;26.60;52.40
64843;DHT22;51310;52.198;5.422;2022-08-04T13:04:59;26.70;51.80
64843;DHT22;51310;52.198;5.422;2022-08-04T13:07:37;26.70;52.60
64843;DHT22;51310;52.198;5.422;2022-08-04T13:10:16;26.50;54.00
64843;DHT22;51310;52.198;5.422;2022-08-04T13:13:00;26.60;53.20
64843;DHT22;51310;52.198;5.422;2022-08-04T13:15:27;26.30;53.80
64843;DHT22;51310;52.198;5.422;2022-08-04T13:18:01;26.30;53.10
64843;DHT22;51310;52.198;5.422;2022-08-04T13:20:36;26.30;52.40
64843;DHT22;51310;52.198;5.422;2022-08-04T13:23:12;26.40;53.80
64843;DHT22;51310;52.198;5.422;2022-08-04T13:25:50;26.40;53.50
64843;DHT22;51310;52.198;5.422;2022-08-04T13:28:23;26.60;52.10
64843;DHT22;51310;52.198;5.422;2022-08-04T13:30:54;26.60;52.20
64843;DHT22;51310;52.198;5.422;2022-08-04T13:33:30;26.50;52.30
64843;DHT22;51310;52.198;5.422;2022-08-04T13:36:00;26.60;50.10
64843;DHT22;51310;52.198;5.422;2022-08-04T13:38:28;26.50;52.10
64843;DHT22;51310;52.198;5.422;2022-08-04T13:41:01;26.70;51.70
64843;DHT22;51310;52.198;5.422;2022-08-04T13:43:32;26.80;50.50
64843;DHT22;51310;52.198;5.422;2022-08-04T13:46:31;27.00;48.70
64843;DHT22;51310;52.198;5.422;2022-08-04T13:49:08;27.10;48.70
64843;DHT22;51310;52.198;5.422;2022-08-04T13:51:36;26.60;49.30
64843;DHT22;51310;52.198;5.422;2022-08-04T13:54:04;26.70;48.50
64843;DHT22;51310;52.198;5.422;2022-08-04T13:56:35;26.20;49.10
64843;DHT22;51310;52.198;5.422;2022-08-04T13:59:09;26.30;50.30
64843;DHT22;51310;52.198;5.422;2022-08-04T14:01:37;27.80;50.30
64843;DHT22;51310;52.198;5.422;2022-08-04T14:04:17;26.60;48.00
64843;DHT22;51310;52.198;5.422;2022-08-04T14:06:54;26.60;47.00
64843;DHT22;51310;52.198;5.422;2022-08-04T14:09:33;26.50;48.70
64843;DHT22;51310;52.198;5.422;2022-08-04T14:12:06;26.50;47.30
64843;DHT22;51310;52.198;5.422;2022-08-04T14:14:50;26.60;46.80
64843;DHT22;51310;52.198;5.422;2022-08-04T14:17:25;26.40;48.40
64843;DHT22;51310;52.198;5.422;2022-08-04T14:19:59;26.30;48.00
64843;DHT22;51310;52.198;5.422;2022-08-04T14:27:27;26.90;47.70
64843;DHT22;51310;52.198;5.422;2022-08-04T14:29:53;26.60;48.10
64843;DHT22;51310;52.198;5.422;2022-08-04T14:32:19;26.80;45.60
64843;DHT22;51310;52.198;5.422;2022-08-04T14:34:48;26.50;45.60
64843;DHT22;51310;52.198;5.422;2022-08-04T14:37:18;26.40;46.60
64843;DHT22;51310;52.198;5.422;2022-08-04T14:39:49;26.40;46.60
64843;DHT22;51310;52.198;5.422;2022-08-04T14:42:38;26.30;48.00
64843;DHT22;51310;52.198;5.422;2022-08-04T14:45:09;26.20;47.60
64843;DHT22;51310;52.198;5.422;2022-08-04T14:47:42;26.30;47.90
64843;DHT22;51310;52.198;5.422;2022-08-04T14:50:11;26.30;48.80
64843;DHT22;51310;52.198;5.422;2022-08-04T14:52:39;26.10;49.00
64843;DHT22;51310;52.198;5.422;2022-08-04T14:55:20;26.50;46.80
64843;DHT22;51310;52.198;5.422;2022-08-04T14:57:50;26.70;47.30
64843;DHT22;51310;52.198;5.422;2022-08-04T15:00:28;26.40;45.70
64843;DHT22;51310;52.198;5.422;2022-08-04T15:03:06;26.30;46.50
64843;DHT22;51310;52.198;5.422;2022-08-04T15:05:35;26.70;46.60
64843;DHT22;51310;52.198;5.422;2022-08-04T15:08:04;26.60;47.00
64843;DHT22;51310;52.198;5.422;2022-08-04T15:10:30;26.60;45.20
64843;DHT22;51310;52.198;5.422;2022-08-04T15:12:56;26.40;45.60
64843;DHT22;51310;52.198;5.422;2022-08-04T15:15:23;26.20;46.20
64843;DHT22;51310;52.198;5.422;2022-08-04T15:17:52;26.20;47.00
64843;DHT22;51310;52.198;5.422;2022-08-04T15:20:19;26.30;46.00
64843;DHT22;51310;52.198;5.422;2022-08-04T15:22:46;26.20;46.20
64843;DHT22;51310;52.198;5.422;2022-08-04T15:25:12;26.00;46.50
64843;DHT22;51310;52.198;5.422;2022-08-04T15:27:47;26.10;46.20
64843;DHT22;51310;52.198;5.422;2022-08-04T15:30:16;26.00;46.50
64843;DHT22;51310;52.198;5.422;2022-08-04T15:32:56;25.70;46.10
64843;DHT22;51310;52.198;5.422;2022-08-04T15:35:26;25.70;47.90
64843;DHT22;51310;52.198;5.422;2022-08-04T15:40:50;25.60;47.60
64843;DHT22;51310;52.198;5.422;2022-08-04T15:43:55;25.60;47.50
64843;DHT22;51310;52.198;5.422;2022-08-04T15:47:13;25.60;46.90
64843;DHT22;51310;52.198;5.422;2022-08-04T15:49:40;25.80;45.80
64843;DHT22;51310;52.198;5.422;2022-08-04T15:52:13;26.10;46.60
64843;DHT22;51310;52.198;5.422;2022-08-04T15:54:42;25.80;44.90
64843;DHT22;51310;52.198;5.422;2022-08-04T15:57:09;25.90;46.20
64843;DHT22;51310;52.198;5.422;2022-08-04T16:08:07;25.60;47.50
64843;DHT22;51310;52.198;5.422;2022-08-04T16:10:38;25.50;47.30
64843;DHT22;51310;52.198;5.422;2022-08-04T16:20:57;25.10;49.30
64843;DHT22;51310;52.198;5.422;2022-08-04T16:26:03;24.90;50.20
64843;DHT22;51310;52.198;5.422;2022-08-04T16:28:36;24.80;49.40
64843;DHT22;51310;52.198;5.422;2022-08-04T16:31:11;24.90;49.60
64843;DHT22;51310;52.198;5.422;2022-08-04T16:33:38;25.10;49.00
64843;DHT22;51310;52.198;5.422;2022-08-04T16:36:08;24.90;49.10
64843;DHT22;51310;52.198;5.422;2022-08-04T16:38:59;24.90;47.90
64843;DHT22;51310;52.198;5.422;2022-08-04T16:41:38;24.80;48.60
64843;DHT22;51310;52.198;5.422;2022-08-04T16:44:35;24.80;49.20
64843;DHT22;51310;52.198;5.422;2022-08-04T16:47:05;24.50;50.10
64843;DHT22;51310;52.198;5.422;2022-08-04T16:49:33;26.00;50.10
64843;DHT22;51310;52.198;5.422;2022-08-04T16:52:06;24.80;48.90
64843;DHT22;51310;52.198;5.422;2022-08-04T16:54:34;24.80;49.20
64843;DHT22;51310;52.198;5.422;2022-08-04T16:57:07;24.70;48.80
64843;DHT22;51310;52.198;5.422;2022-08-04T16:59:34;24.40;49.40
64843;DHT22;51310;52.198;5.422;2022-08-04T17:02:01;24.70;49.10
64843;DHT22;51310;52.198;5.422;2022-08-04T17:04:28;25.00;47.30
64843;DHT22;51310;52.198;5.422;2022-08-04T17:07:05;24.90;46.90
64843;DHT22;51310;52.198;5.422;2022-08-04T17:09:31;24.90;47.30
64843;DHT22;51310;52.198;5.422;2022-08-04T17:11:58;25.00;45.70
64843;DHT22;51310;52.198;5.422;2022-08-04T17:14:29;25.00;47.60
64843;DHT22;51310;52.198;5.422;2022-08-04T17:16:58;24.90;46.60
64843;DHT22;51310;52.198;5.422;2022-08-04T17:19:26;24.90;46.30
64843;DHT22;51310;52.198;5.422;2022-08-04T17:22:04;24.90;45.50
64843;DHT22;51310;52.198;5.422;2022-08-04T17:24:37;24.70;46.40
64843;DHT22;51310;52.198;5.422;2022-08-04T17:27:05;24.70;45.60
64843;DHT22;51310;52.198;5.422;2022-08-04T17:29:41;24.80;46.00
64843;DHT22;51310;52.198;5.422;2022-08-04T17:32:12;24.70;45.70
64843;DHT22;51310;52.198;5.422;2022-08-04T17:34:40;24.50;46.10
64843;DHT22;51310;52.198;5.422;2022-08-04T17:37:20;24.30;46.10
64843;DHT22;51310;52.198;5.422;2022-08-04T17:39:49;24.50;46.10
64843;DHT22;51310;52.198;5.422;2022-08-04T17:42:32;24.50;46.10
64843;DHT22;51310;52.198;5.422;2022-08-04T17:45:16;24.90;47.10
64843;DHT22;51310;52.198;5.422;2022-08-04T17:47:52;24.10;46.40
64843;DHT22;51310;52.198;5.422;2022-08-04T17:50:29;23.80;47.10
64843;DHT22;51310;52.198;5.422;2022-08-04T17:53:00;23.60;48.00
64843;DHT22;51310;52.198;5.422;2022-08-04T17:55:47;23.30;48.90
64843;DHT22;51310;52.198;5.422;2022-08-04T17:58:19;23.40;49.10
64843;DHT22;51310;52.198;5.422;2022-08-04T18:00:59;23.40;48.20
64843;DHT22;51310;52.198;5.422;2022-08-04T18:03:27;23.40;49.60
64843;DHT22;51310;52.198;5.422;2022-08-04T18:05:53;23.30;49.90
64843;DHT22;51310;52.198;5.422;2022-08-04T18:08:25;23.30;50.40
64843;DHT22;51310;52.198;5.422;2022-08-04T18:10:52;23.30;50.60
64843;DHT22;51310;52.198;5.422;2022-08-04T18:13:20;23.20;52.10
64843;DHT22;51310;52.198;5.422;2022-08-04T18:15:46;23.20;51.20
64843;DHT22;51310;52.198;5.422;2022-08-04T18:18:16;23.20;50.80
64843;DHT22;51310;52.198;5.422;2022-08-04T18:20:45;23.20;50.90
64843;DHT22;51310;52.198;5.422;2022-08-04T18:23:13;23.10;50.40
64843;DHT22;51310;52.198;5.422;2022-08-04T18:25:44;22.90;51.00
64843;DHT22;51310;52.198;5.422;2022-08-04T18:28:12;22.80;51.70
64843;DHT22;51310;52.198;5.422;2022-08-04T18:30:41;22.90;51.50
64843;DHT22;51310;52.198;5.422;2022-08-04T18:33:09;24.70;52.50
64843;DHT22;51310;52.198;5.422;2022-08-04T18:35:35;23.70;52.60
64843;DHT22;51310;52.198;5.422;2022-08-04T18:38:02;22.80;52.20
64843;DHT22;51310;52.198;5.422;2022-08-04T18:40:28;22.70;51.60
64843;DHT22;51310;52.198;5.422;2022-08-04T18:42:54;22.60;52.90
64843;DHT22;51310;52.198;5.422;2022-08-04T18:45:20;22.70;53.20
64843;DHT22;51310;52.198;5.422;2022-08-04T18:47:48;22.70;53.50
64843;DHT22;51310;52.198;5.422;2022-08-04T18:50:17;22.50;54.30
64843;DHT22;51310;52.198;5.422;2022-08-04T18:52:43;22.40;54.90
64843;DHT22;51310;52.198;5.422;2022-08-04T18:55:09;22.40;55.20
64843;DHT22;51310;52.198;5.422;2022-08-04T18:57:42;22.30;55.40
64843;DHT22;51310;52.198;5.422;2022-08-04T19:00:08;22.10;56.80
64843;DHT22;51310;52.198;5.422;2022-08-04T19:02:35;21.90;57.20
64843;DHT22;51310;52.198;5.422;2022-08-04T19:05:01;22.10;57.40
64843;DHT22;51310;52.198;5.422;2022-08-04T19:07:27;22.00;57.90
64843;DHT22;51310;52.198;5.422;2022-08-04T19:09:53;22.10;57.80
64843;DHT22;51310;52.198;5.422;2022-08-04T19:12:19;22.00;57.30
64843;DHT22;51310;52.198;5.422;2022-08-04T19:14:45;21.90;59.10
64843;DHT22;51310;52.198;5.422;2022-08-04T19:17:11;21.90;59.80
64843;DHT22;51310;52.198;5.422;2022-08-04T19:19:37;21.90;60.10
64843;DHT22;51310;52.198;5.422;2022-08-04T19:22:08;21.90;59.90
64843;DHT22;51310;52.198;5.422;2022-08-04T19:24:34;21.90;60.10
64843;DHT22;51310;52.198;5.422;2022-08-04T19:27:04;21.90;60.50
64843;DHT22;51310;52.198;5.422;2022-08-04T19:29:31;21.90;60.70
64843;DHT22;51310;52.198;5.422;2022-08-04T19:31:57;21.70;61.80
64843;DHT22;51310;52.198;5.422;2022-08-04T19:34:23;21.50;63.30
64843;DHT22;51310;52.198;5.422;2022-08-04T19:36:49;21.50;64.40
64843;DHT22;51310;52.198;5.422;2022-08-04T19:39:15;21.30;64.80
64843;DHT22;51310;52.198;5.422;2022-08-04T19:41:44;21.30;65.40
64843;DHT22;51310;52.198;5.422;2022-08-04T19:44:10;21.40;64.40
64843;DHT22;51310;52.198;5.422;2022-08-04T19:46:35;22.30;66.20
64843;DHT22;51310;52.198;5.422;2022-08-04T19:49:01;21.40;64.70
64843;DHT22;51310;52.198;5.422;2022-08-04T19:51:28;21.30;65.30
64843;DHT22;51310;52.198;5.422;2022-08-04T19:53:54;21.20;65.90
64843;DHT22;51310;52.198;5.422;2022-08-04T19:56:22;21.30;66.40
64843;DHT22;51310;52.198;5.422;2022-08-04T19:58:48;21.30;66.50
64843;DHT22;51310;52.198;5.422;2022-08-04T20:01:14;21.20;67.30